createdAt,value
2016-07-31T00:00:00.477Z,963.84
2016-07-31T00:01:00.491Z,963.81
2016-07-31T00:02:00.481Z,963.81
2016-07-31T00:03:00.485Z,963.81
2016-07-31T00:04:00.484Z,963.78
2016-07-31T00:05:00.485Z,963.81
2016-07-31T00:06:00.488Z,963.79
2016-07-31T00:07:00.488Z,963.78
2016-07-31T00:08:00.493Z,963.77
2016-07-31T00:09:00.494Z,963.81
2016-07-31T00:10:00.493Z,963.82
2016-07-31T00:11:00.497Z,963.82
2016-07-31T00:12:00.497Z,963.91
2016-07-31T00:13:00.501Z,963.9
2016-07-31T00:14:00.502Z,963.88
2016-07-31T00:15:00.501Z,963.9
2016-07-31T00:16:00.505Z,963.85
2016-07-31T00:17:00.505Z,963.87
2016-07-31T00:18:00.505Z,963.9
2016-07-31T00:19:00.510Z,963.9
2016-07-31T00:20:00.509Z,963.95
2016-07-31T00:21:00.509Z,963.98
2016-07-31T00:22:00.514Z,963.99
2016-07-31T00:23:00.515Z,964.06
2016-07-31T00:24:00.517Z,964.04
2016-07-31T00:25:00.517Z,964.05
2016-07-31T00:26:00.517Z,964.06
2016-07-31T00:27:00.522Z,964.01
2016-07-31T00:29:00.522Z,963.95
2016-07-31T00:30:00.526Z,963.95
2016-07-31T00:31:00.525Z,963.95
2016-07-31T00:32:00.526Z,963.95
2016-07-31T00:33:00.530Z,963.94
2016-07-31T00:34:00.530Z,963.97
2016-07-31T00:35:00.534Z,964
2016-07-31T00:36:00.534Z,964
2016-07-31T00:37:00.534Z,964.01
2016-07-31T00:38:00.538Z,964.01
2016-07-31T00:39:00.538Z,964.01
2016-07-31T00:40:00.538Z,964.07
2016-07-31T00:41:00.543Z,964.09
2016-07-31T00:42:00.542Z,964.08
2016-07-31T00:44:00.547Z,964.14
2016-07-31T00:45:00.545Z,964.15
2016-07-31T00:46:00.550Z,964.15
2016-07-31T00:47:00.798Z,964.2
2016-07-31T00:48:00.550Z,964.22
2016-07-31T00:49:00.555Z,964.24
2016-07-31T00:50:00.554Z,964.23
2016-07-31T00:51:00.554Z,964.27
2016-07-31T00:52:00.559Z,964.3
2016-07-31T00:53:00.559Z,964.32
2016-07-31T00:54:00.559Z,964.32
2016-07-31T00:55:00.563Z,964.38
2016-07-31T00:56:00.563Z,964.37
2016-07-31T00:57:00.567Z,964.4
2016-07-31T00:59:00.567Z,964.42
2016-07-31T01:00:00.572Z,964.46
2016-07-31T01:01:00.570Z,964.47
2016-07-31T01:02:00.571Z,964.48
2016-07-31T01:03:00.576Z,964.49
2016-07-31T01:04:00.574Z,964.46
2016-07-31T01:05:00.576Z,964.47
2016-07-31T01:06:00.579Z,964.48
2016-07-31T01:07:00.579Z,964.44
2016-07-31T01:08:00.583Z,964.38
2016-07-31T01:09:00.583Z,964.38
2016-07-31T01:10:00.587Z,964.36
2016-07-31T01:11:00.588Z,964.34
2016-07-31T01:12:00.586Z,964.36
2016-07-31T01:14:00.591Z,964.32
2016-07-31T01:15:00.591Z,964.33
2016-07-31T01:16:00.595Z,964.39
2016-07-31T01:17:00.596Z,964.37
2016-07-31T01:18:00.595Z,964.41
2016-07-31T01:19:00.600Z,964.44
2016-07-31T01:20:00.599Z,964.43
2016-07-31T01:21:00.603Z,964.47
2016-07-31T01:22:00.603Z,964.48
2016-07-31T01:23:00.604Z,964.47
2016-07-31T01:24:00.607Z,964.49
2016-07-31T01:25:00.607Z,964.53
2016-07-31T01:26:00.607Z,964.53
2016-07-31T01:27:00.607Z,964.5
2016-07-31T01:29:00.611Z,964.49
2016-07-31T01:30:00.615Z,964.47
2016-07-31T01:31:00.619Z,964.47
2016-07-31T01:32:00.616Z,964.47
2016-07-31T01:33:00.620Z,964.51
2016-07-31T01:34:00.620Z,964.49
2016-07-31T01:35:00.620Z,964.49
2016-07-31T01:36:00.623Z,964.49
2016-07-31T01:37:00.624Z,964.53
2016-07-31T01:38:00.624Z,964.5
2016-07-31T01:39:00.628Z,964.53
2016-07-31T01:40:00.628Z,964.57
2016-07-31T01:41:00.633Z,964.57
2016-07-31T01:42:00.632Z,964.58
2016-07-31T01:44:00.636Z,964.58
2016-07-31T01:45:00.636Z,964.57
2016-07-31T01:46:00.637Z,964.61
2016-07-31T01:47:00.641Z,964.61
2016-07-31T01:48:00.640Z,964.71
2016-07-31T01:49:00.640Z,964.73
2016-07-31T01:50:00.645Z,964.79
2016-07-31T01:51:00.645Z,964.79
2016-07-31T01:52:00.644Z,964.8
2016-07-31T01:53:00.648Z,964.8
2016-07-31T01:54:00.649Z,964.79
2016-07-31T01:55:00.649Z,964.81
2016-07-31T01:56:00.653Z,964.83
2016-07-31T01:57:00.653Z,964.74
2016-07-31T01:58:00.653Z,964.78
2016-07-31T01:59:00.657Z,964.72
2016-07-31T02:00:00.658Z,964.71
2016-07-31T02:01:00.657Z,964.73
2016-07-31T02:02:00.661Z,964.72
2016-07-31T02:03:00.661Z,964.76
2016-07-31T02:04:00.661Z,964.74
2016-07-31T02:05:00.665Z,964.72
2016-07-31T02:06:00.665Z,964.75
2016-07-31T02:07:00.665Z,964.73
2016-07-31T02:08:00.669Z,964.72
2016-07-31T02:09:00.669Z,964.71
2016-07-31T02:10:00.673Z,964.72
2016-07-31T02:11:00.673Z,964.77
2016-07-31T02:12:00.680Z,964.76
2016-07-31T02:13:00.677Z,964.71
2016-07-31T02:14:00.678Z,964.71
2016-07-31T02:15:00.677Z,964.74
2016-07-31T02:16:00.681Z,964.78
2016-07-31T02:17:00.680Z,964.8
2016-07-31T02:18:00.681Z,964.75
2016-07-31T02:19:00.685Z,964.73
2016-07-31T02:20:00.684Z,964.71
2016-07-31T02:21:00.685Z,964.7
2016-07-31T02:22:00.689Z,964.67
2016-07-31T02:23:00.690Z,964.63
2016-07-31T02:24:00.689Z,964.65
2016-07-31T02:25:00.693Z,964.65
2016-07-31T02:26:00.693Z,964.55
2016-07-31T02:27:00.693Z,964.57
2016-07-31T02:28:00.697Z,964.63
2016-07-31T02:29:00.697Z,964.55
2016-07-31T02:30:00.698Z,964.57
2016-07-31T02:31:00.701Z,964.53
2016-07-31T02:32:00.701Z,964.54
2016-07-31T02:33:00.700Z,964.51
2016-07-31T02:34:00.705Z,964.51
2016-07-31T02:35:00.705Z,964.52
2016-07-31T02:36:00.705Z,964.51
2016-07-31T02:37:00.711Z,964.49
2016-07-31T02:38:00.709Z,964.54
2016-07-31T02:39:00.709Z,964.54
2016-07-31T02:40:00.714Z,964.51
2016-07-31T02:41:00.713Z,964.47
2016-07-31T02:42:00.713Z,964.45
2016-07-31T02:43:00.728Z,964.44
2016-07-31T02:44:00.718Z,964.45
2016-07-31T02:45:00.722Z,964.42
2016-07-31T02:46:00.722Z,964.43
2016-07-31T02:47:00.721Z,964.38
2016-07-31T02:48:00.726Z,964.34
2016-07-31T02:49:00.726Z,964.33
2016-07-31T02:50:00.725Z,964.3
2016-07-31T02:51:00.726Z,964.31
2016-07-31T02:52:00.730Z,964.27
2016-07-31T02:53:00.730Z,964.22
2016-07-31T02:54:00.730Z,964.2
2016-07-31T02:55:00.734Z,964.13
2016-07-31T02:56:00.734Z,964
2016-07-31T02:57:00.738Z,964.04
2016-07-31T02:58:00.738Z,963.97
2016-07-31T02:59:00.738Z,963.96
2016-07-31T03:00:00.738Z,963.93
2016-07-31T03:01:00.742Z,963.93
2016-07-31T03:02:00.742Z,963.99
2016-07-31T03:03:00.746Z,963.96
2016-07-31T03:04:00.747Z,964.01
2016-07-31T03:05:00.746Z,963.94
2016-07-31T03:06:00.746Z,963.93
2016-07-31T03:07:00.762Z,963.94
2016-07-31T03:08:00.751Z,963.93
2016-07-31T03:09:00.751Z,963.93
2016-07-31T03:10:00.754Z,963.91
2016-07-31T03:11:00.754Z,963.91
2016-07-31T03:12:00.758Z,963.89
2016-07-31T03:13:00.758Z,963.93
2016-07-31T03:14:00.758Z,963.94
2016-07-31T03:15:00.759Z,963.93
2016-07-31T03:16:00.762Z,963.88
2016-07-31T03:17:00.762Z,963.93
2016-07-31T03:18:00.762Z,963.9
2016-07-31T03:19:00.767Z,963.91
2016-07-31T03:20:00.766Z,963.91
2016-07-31T03:21:00.766Z,963.94
2016-07-31T03:22:00.770Z,963.94
2016-07-31T03:23:00.771Z,963.96
2016-07-31T03:24:00.775Z,964
2016-07-31T03:25:00.774Z,964.04
2016-07-31T03:26:00.774Z,964.03
2016-07-31T03:27:00.775Z,963.98
2016-07-31T03:28:00.779Z,963.98
2016-07-31T03:29:00.778Z,963.97
2016-07-31T03:30:00.782Z,964.02
2016-07-31T03:31:00.783Z,963.99
2016-07-31T03:32:00.782Z,964.01
2016-07-31T03:33:00.783Z,964.01
2016-07-31T03:34:00.787Z,963.98
2016-07-31T03:35:00.786Z,963.95
2016-07-31T03:36:00.786Z,963.94
2016-07-31T03:37:00.791Z,963.96
2016-07-31T03:38:00.790Z,963.93
2016-07-31T03:39:00.791Z,963.95
2016-07-31T03:40:00.794Z,963.93
2016-07-31T03:41:00.795Z,963.89
2016-07-31T03:42:00.795Z,963.81
2016-07-31T03:43:00.798Z,963.85
2016-07-31T03:44:00.798Z,963.71
2016-07-31T03:45:00.803Z,963.79
2016-07-31T03:46:00.803Z,963.78
2016-07-31T03:47:00.802Z,963.79
2016-07-31T03:48:00.804Z,963.69
2016-07-31T03:49:00.807Z,963.84
2016-07-31T03:50:00.807Z,963.93
2016-07-31T03:51:00.807Z,963.9
2016-07-31T03:52:00.810Z,963.95
2016-07-31T03:53:00.811Z,963.96
2016-07-31T03:54:00.811Z,963.86
2016-07-31T03:55:00.818Z,963.82
2016-07-31T03:56:00.815Z,963.69
2016-07-31T03:57:00.815Z,963.83
2016-07-31T03:58:00.820Z,963.84
2016-07-31T03:59:00.819Z,963.77
2016-07-31T04:00:00.819Z,963.84
2016-07-31T04:01:00.823Z,963.79
2016-07-31T04:02:00.823Z,963.87
2016-07-31T04:03:00.827Z,963.9
2016-07-31T04:04:00.828Z,963.89
2016-07-31T04:05:00.828Z,963.91
2016-07-31T04:06:00.831Z,963.92
2016-07-31T04:07:00.832Z,963.85
2016-07-31T04:08:00.832Z,963.93
2016-07-31T04:09:00.836Z,963.96
2016-07-31T04:10:00.836Z,963.96
2016-07-31T04:11:00.836Z,964
2016-07-31T04:12:00.836Z,964.03
2016-07-31T04:13:00.841Z,964.04
2016-07-31T04:14:00.840Z,964.06
2016-07-31T04:15:00.841Z,964.04
2016-07-31T04:16:00.845Z,964.09
2016-07-31T04:17:00.843Z,964.09
2016-07-31T04:18:00.849Z,964.08
2016-07-31T04:19:00.848Z,964.05
2016-07-31T04:20:00.848Z,964.02
2016-07-31T04:21:00.852Z,964.08
2016-07-31T04:22:00.856Z,964.1
2016-07-31T04:23:00.852Z,964.15
2016-07-31T04:24:00.857Z,964.16
2016-07-31T04:25:00.856Z,964.17
2016-07-31T04:26:00.856Z,964.15
2016-07-31T04:27:00.861Z,964.14
2016-07-31T04:28:00.861Z,964.14
2016-07-31T04:29:00.860Z,964.1
2016-07-31T04:30:00.864Z,964.18
2016-07-31T04:31:00.865Z,964.16
2016-07-31T04:32:00.869Z,964.19
2016-07-31T04:33:00.869Z,964.2
2016-07-31T04:34:00.869Z,964.17
2016-07-31T04:35:00.868Z,964.2
2016-07-31T04:36:00.873Z,964.19
2016-07-31T04:37:00.874Z,964.2
2016-07-31T04:38:00.872Z,964.2
2016-07-31T04:39:00.876Z,964.22
2016-07-31T04:40:00.877Z,964.17
2016-07-31T04:41:00.882Z,964.22
2016-07-31T04:42:00.881Z,964.19
2016-07-31T04:43:00.880Z,964.14
2016-07-31T04:44:00.881Z,964.13
2016-07-31T04:45:00.885Z,964.11
2016-07-31T04:46:00.885Z,964.11
2016-07-31T04:47:00.890Z,964.08
2016-07-31T04:48:00.893Z,964.11
2016-07-31T04:49:00.890Z,964.06
2016-07-31T04:50:00.900Z,964.06
2016-07-31T04:51:00.893Z,964.04
2016-07-31T04:52:00.893Z,964.03
2016-07-31T04:53:00.897Z,964.04
2016-07-31T04:54:00.898Z,964.02
2016-07-31T04:55:00.897Z,964.05
2016-07-31T04:56:00.902Z,964.11
2016-07-31T04:57:00.902Z,964.16
2016-07-31T04:58:00.901Z,964.17
2016-07-31T04:59:00.912Z,964.16
2016-07-31T05:00:00.905Z,964.19
2016-07-31T05:01:00.906Z,964.22
2016-07-31T05:02:00.915Z,964.23
2016-07-31T05:03:00.909Z,964.22
2016-07-31T05:04:00.910Z,964.24
2016-07-31T05:05:00.914Z,964.25
2016-07-31T05:06:00.913Z,964.25
2016-07-31T05:07:00.913Z,964.24
2016-07-31T05:08:00.917Z,964.21
2016-07-31T05:09:00.917Z,964.22
2016-07-31T05:10:00.918Z,964.28
2016-07-31T05:11:00.922Z,964.26
2016-07-31T05:12:00.921Z,964.31
2016-07-31T05:13:00.921Z,964.33
2016-07-31T05:15:00.926Z,964.33
2016-07-31T05:16:00.925Z,964.34
2016-07-31T05:17:00.935Z,964.35
2016-07-31T05:18:00.929Z,964.37
2016-07-31T05:19:00.929Z,964.34
2016-07-31T05:20:00.933Z,964.34
2016-07-31T05:21:00.934Z,964.36
2016-07-31T05:22:00.934Z,964.38
2016-07-31T05:23:00.941Z,964.38
2016-07-31T05:24:00.938Z,964.38
2016-07-31T05:25:00.938Z,964.39
2016-07-31T05:26:00.941Z,964.38
2016-07-31T05:27:00.942Z,964.36
2016-07-31T05:28:00.942Z,964.39
2016-07-31T05:30:00.949Z,964.4
2016-07-31T05:31:00.950Z,964.47
2016-07-31T05:32:00.951Z,964.45
2016-07-31T05:33:00.951Z,964.45
2016-07-31T05:34:00.954Z,964.47
2016-07-31T05:35:00.954Z,964.5
2016-07-31T05:36:00.955Z,964.51
2016-07-31T05:37:00.958Z,964.5
2016-07-31T05:38:00.958Z,964.48
2016-07-31T05:39:00.958Z,964.46
2016-07-31T05:40:00.963Z,964.41
2016-07-31T05:41:00.963Z,964.48
2016-07-31T05:42:00.963Z,964.51
2016-07-31T05:43:00.967Z,964.55
2016-07-31T05:44:00.967Z,964.55
2016-07-31T05:45:00.967Z,964.55
2016-07-31T05:46:00.966Z,964.48
2016-07-31T05:47:00.972Z,964.47
2016-07-31T05:48:00.971Z,964.41
2016-07-31T05:49:00.975Z,964.45
2016-07-31T05:50:00.976Z,964.47
2016-07-31T05:51:00.975Z,964.47
2016-07-31T05:52:00.979Z,964.5
2016-07-31T05:53:00.980Z,964.51
2016-07-31T05:54:00.983Z,964.51
2016-07-31T05:55:00.983Z,964.57
2016-07-31T05:56:00.988Z,964.57
2016-07-31T05:57:00.988Z,964.55
2016-07-31T05:58:00.988Z,964.53
2016-07-31T05:59:00.992Z,964.56
2016-07-31T06:00:00.991Z,964.51
2016-07-31T06:01:00.992Z,964.54
2016-07-31T06:02:00.996Z,964.54
2016-07-31T06:03:00.996Z,964.56
2016-07-31T06:04:00.995Z,964.58
2016-07-31T06:05:00.995Z,964.64
2016-07-31T06:06:01.000Z,964.59
2016-07-31T06:07:00.999Z,964.66
2016-07-31T06:08:01.004Z,964.66
2016-07-31T06:09:01.003Z,964.63
2016-07-31T06:10:01.005Z,964.66
2016-07-31T06:11:01.008Z,964.74
2016-07-31T06:12:01.008Z,964.73
2016-07-31T06:13:01.008Z,964.71
2016-07-31T06:14:01.012Z,964.75
2016-07-31T06:15:01.018Z,964.75
2016-07-31T06:16:01.012Z,964.75
2016-07-31T06:17:01.016Z,964.74
2016-07-31T06:18:01.017Z,964.74
2016-07-31T06:19:01.016Z,964.76
2016-07-31T06:20:01.021Z,964.77
2016-07-31T06:21:01.021Z,964.79
2016-07-31T06:22:01.024Z,964.84
2016-07-31T06:23:01.025Z,964.88
2016-07-31T06:24:01.024Z,964.88
2016-07-31T06:25:01.028Z,964.9
2016-07-31T06:26:01.029Z,964.89
2016-07-31T06:27:01.029Z,964.91
2016-07-31T06:28:01.332Z,964.93
2016-07-31T06:29:01.034Z,964.93
2016-07-31T06:30:01.033Z,964.93
2016-07-31T06:31:01.037Z,964.95
2016-07-31T06:32:01.037Z,964.96
2016-07-31T06:33:01.041Z,965
2016-07-31T06:34:01.041Z,964.96
2016-07-31T06:35:01.041Z,964.98
2016-07-31T06:36:01.045Z,965.03
2016-07-31T06:37:01.044Z,965.04
2016-07-31T06:38:01.048Z,965.05
2016-07-31T06:39:01.049Z,965.05
2016-07-31T06:40:01.049Z,965.08
2016-07-31T06:41:01.050Z,965.03
2016-07-31T06:42:01.054Z,965.05
2016-07-31T06:43:01.053Z,965.07
2016-07-31T06:44:01.057Z,965.06
2016-07-31T06:45:01.057Z,965.07
2016-07-31T06:46:01.061Z,965.06
2016-07-31T06:47:01.062Z,965.07
2016-07-31T06:48:01.061Z,965.09
2016-07-31T06:49:01.062Z,965.08
2016-07-31T06:50:01.066Z,965.11
2016-07-31T06:51:01.065Z,965.11
2016-07-31T06:52:01.066Z,965.19
2016-07-31T06:53:01.070Z,965.16
2016-07-31T06:54:01.070Z,965.2
2016-07-31T06:55:01.074Z,965.2
2016-07-31T06:56:01.074Z,965.23
2016-07-31T06:57:01.074Z,965.27
2016-07-31T06:58:01.079Z,965.32
2016-07-31T06:59:01.079Z,965.3
2016-07-31T07:00:01.080Z,965.31
2016-07-31T07:01:01.082Z,965.32
2016-07-31T07:02:01.082Z,965.31
2016-07-31T07:03:01.082Z,965.31
2016-07-31T07:04:01.086Z,965.33
2016-07-31T07:05:01.086Z,965.29
2016-07-31T07:06:01.091Z,965.35
2016-07-31T07:07:01.090Z,965.3
2016-07-31T07:08:01.091Z,965.35
2016-07-31T07:09:01.095Z,965.34
2016-07-31T07:10:01.094Z,965.35
2016-07-31T07:11:01.095Z,965.33
2016-07-31T07:12:01.099Z,965.33
2016-07-31T07:13:01.098Z,965.31
2016-07-31T07:14:01.099Z,965.34
2016-07-31T07:15:01.103Z,965.35
2016-07-31T07:16:01.107Z,965.36
2016-07-31T07:17:01.107Z,965.36
2016-07-31T07:18:01.107Z,965.38
2016-07-31T07:19:01.107Z,965.4
2016-07-31T07:20:01.112Z,965.37
2016-07-31T07:21:01.111Z,965.34
2016-07-31T07:22:01.115Z,965.35
2016-07-31T07:23:01.116Z,965.33
2016-07-31T07:24:01.115Z,965.27
2016-07-31T07:25:01.119Z,965.29
2016-07-31T07:26:01.120Z,965.31
2016-07-31T07:27:01.124Z,965.29
2016-07-31T07:28:01.123Z,965.28
2016-07-31T07:29:01.127Z,965.29
2016-07-31T07:30:01.127Z,965.28
2016-07-31T07:31:01.126Z,965.33
2016-07-31T07:32:01.131Z,965.34
2016-07-31T07:33:01.131Z,965.33
2016-07-31T07:34:01.135Z,965.32
2016-07-31T07:35:01.136Z,965.36
2016-07-31T07:36:01.136Z,965.31
2016-07-31T07:37:01.140Z,965.32
2016-07-31T07:38:01.140Z,965.3
2016-07-31T07:39:01.140Z,965.3
2016-07-31T07:40:01.144Z,965.3
2016-07-31T07:41:01.144Z,965.29
2016-07-31T07:42:01.148Z,965.23
2016-07-31T07:43:01.148Z,965.28
2016-07-31T07:44:01.152Z,965.26
2016-07-31T07:45:01.151Z,965.23
2016-07-31T07:46:01.156Z,965.2
2016-07-31T07:47:01.255Z,965.18
2016-07-31T07:48:01.156Z,965.18
2016-07-31T07:49:01.160Z,965.18
2016-07-31T07:50:01.160Z,965.16
2016-07-31T07:51:01.159Z,965.17
2016-07-31T07:52:01.163Z,965.17
2016-07-31T07:53:01.164Z,965.17
2016-07-31T07:54:01.168Z,965.11
2016-07-31T07:55:01.169Z,965.16
2016-07-31T07:56:01.173Z,965.13
2016-07-31T07:57:01.172Z,965.13
2016-07-31T07:58:01.172Z,965.1
2016-07-31T07:59:01.176Z,965.11
2016-07-31T08:00:01.177Z,965.1
2016-07-31T08:01:01.180Z,965.08
2016-07-31T08:02:01.181Z,965.08
2016-07-31T08:03:01.184Z,965.08
2016-07-31T08:04:01.185Z,965.08
2016-07-31T08:05:01.185Z,965.07
2016-07-31T08:06:01.188Z,965.07
2016-07-31T08:07:01.189Z,965.04
2016-07-31T08:08:01.193Z,965.03
2016-07-31T08:09:01.193Z,965.04
2016-07-31T08:10:01.197Z,965.02
2016-07-31T08:11:01.197Z,964.97
2016-07-31T08:12:01.196Z,964.99
2016-07-31T08:13:01.201Z,964.96
2016-07-31T08:14:01.201Z,964.96
2016-07-31T08:15:01.205Z,964.98
2016-07-31T08:16:01.205Z,965
2016-07-31T08:17:01.209Z,964.94
2016-07-31T08:18:01.209Z,964.97
2016-07-31T08:19:01.212Z,964.96
2016-07-31T08:20:01.212Z,964.98
2016-07-31T08:21:01.212Z,964.99
2016-07-31T08:22:01.217Z,965.01
2016-07-31T08:23:01.217Z,965.06
2016-07-31T08:24:01.221Z,965.02
2016-07-31T08:25:01.221Z,965.02
2016-07-31T08:26:01.223Z,965.03
2016-07-31T08:27:01.224Z,965.02
2016-07-31T08:28:01.225Z,965.03
2016-07-31T08:29:01.229Z,965.01
2016-07-31T08:30:01.229Z,965.02
2016-07-31T08:31:01.232Z,965.01
2016-07-31T08:32:01.236Z,965.05
2016-07-31T08:33:01.236Z,965.05
2016-07-31T08:34:01.237Z,965.02
2016-07-31T08:35:01.236Z,964.99
2016-07-31T08:36:01.240Z,965.01
2016-07-31T08:37:01.247Z,965.04
2016-07-31T08:38:01.245Z,965.02
2016-07-31T08:39:01.245Z,965.05
2016-07-31T08:40:01.249Z,965.06
2016-07-31T08:41:01.249Z,965.1
2016-07-31T08:42:01.253Z,965.07
2016-07-31T08:43:01.253Z,965.04
2016-07-31T08:44:01.258Z,965.05
2016-07-31T08:45:01.256Z,965.07
2016-07-31T08:46:01.262Z,965.06
2016-07-31T08:47:01.261Z,965.08
2016-07-31T08:48:01.265Z,965.09
2016-07-31T08:49:01.265Z,965.11
2016-07-31T08:50:01.266Z,965.13
2016-07-31T08:51:01.269Z,965.18
2016-07-31T08:52:01.268Z,965.13
2016-07-31T08:53:01.273Z,965.13
2016-07-31T08:54:01.273Z,965.1
2016-07-31T08:55:01.278Z,965.13
2016-07-31T08:56:01.276Z,965.11
2016-07-31T08:57:01.280Z,965.17
2016-07-31T08:58:01.280Z,965.18
2016-07-31T08:59:01.285Z,965.17
2016-07-31T09:00:01.286Z,965.26
2016-07-31T09:01:01.286Z,965.28
2016-07-31T09:02:01.289Z,965.31
2016-07-31T09:03:01.294Z,965.35
2016-07-31T09:04:01.294Z,965.33
2016-07-31T09:05:01.298Z,965.32
2016-07-31T09:06:01.298Z,965.35
2016-07-31T09:07:01.298Z,965.34
2016-07-31T09:08:01.301Z,965.32
2016-07-31T09:09:01.306Z,965.37
2016-07-31T09:10:01.306Z,965.36
2016-07-31T09:11:01.305Z,965.4
2016-07-31T09:12:01.310Z,965.43
2016-07-31T09:13:01.320Z,965.48
2016-07-31T09:14:01.314Z,965.46
2016-07-31T09:15:01.314Z,965.53
2016-07-31T09:16:01.318Z,965.54
2016-07-31T09:17:01.318Z,965.59
2016-07-31T09:18:01.322Z,965.68
2016-07-31T09:19:01.322Z,965.68
2016-07-31T09:20:01.326Z,965.71
2016-07-31T09:21:01.326Z,965.7
2016-07-31T09:22:01.326Z,965.7
2016-07-31T09:23:01.331Z,965.67
2016-07-31T09:24:01.331Z,965.7
2016-07-31T09:25:01.334Z,965.73
2016-07-31T09:26:01.334Z,965.72
2016-07-31T09:27:01.339Z,965.68
2016-07-31T09:28:01.346Z,965.7
2016-07-31T09:29:01.342Z,965.7
2016-07-31T09:30:01.343Z,965.73
2016-07-31T09:31:01.346Z,965.67
2016-07-31T09:32:01.346Z,965.67
2016-07-31T09:33:01.351Z,965.71
2016-07-31T09:34:01.351Z,965.73
2016-07-31T09:35:01.355Z,965.74
2016-07-31T09:36:01.355Z,965.78
2016-07-31T09:37:01.359Z,965.75
2016-07-31T09:38:01.359Z,965.72
2016-07-31T09:39:01.363Z,965.75
2016-07-31T09:40:01.363Z,965.69
2016-07-31T09:41:01.363Z,965.67
2016-07-31T09:42:01.367Z,965.62
2016-07-31T09:43:01.367Z,965.62
2016-07-31T09:44:01.371Z,965.61
2016-07-31T09:46:01.376Z,965.59
2016-07-31T09:47:01.375Z,965.6
2016-07-31T09:48:01.379Z,965.61
2016-07-31T09:49:01.379Z,965.6
2016-07-31T09:50:01.384Z,965.55
2016-07-31T09:51:01.383Z,965.58
2016-07-31T09:52:01.387Z,965.62
2016-07-31T09:53:01.387Z,965.63
2016-07-31T09:54:01.392Z,965.57
2016-07-31T09:55:01.391Z,965.62
2016-07-31T09:56:01.392Z,965.62
2016-07-31T09:57:01.396Z,965.64
2016-07-31T09:58:01.396Z,965.64
2016-07-31T09:59:01.400Z,965.63
2016-07-31T10:01:01.404Z,965.65
2016-07-31T10:02:01.404Z,965.6
2016-07-31T10:03:01.408Z,965.62
2016-07-31T10:04:01.407Z,965.56
2016-07-31T10:05:01.412Z,965.61
2016-07-31T10:06:01.412Z,965.58
2016-07-31T10:07:01.412Z,965.54
2016-07-31T10:08:01.416Z,965.49
2016-07-31T10:09:01.415Z,965.47
2016-07-31T10:10:01.420Z,965.43
2016-07-31T10:11:01.419Z,965.48
2016-07-31T10:12:01.424Z,965.48
2016-07-31T10:13:01.424Z,965.45
2016-07-31T10:14:01.424Z,965.49
2016-07-31T10:15:01.428Z,965.5
2016-07-31T10:16:01.431Z,965.51
2016-07-31T10:17:01.431Z,965.47
2016-07-31T10:18:01.437Z,965.46
2016-07-31T10:19:01.436Z,965.47
2016-07-31T10:20:01.436Z,965.48
2016-07-31T10:21:01.439Z,965.48
2016-07-31T10:22:01.440Z,965.5
2016-07-31T10:23:01.443Z,965.45
2016-07-31T10:24:01.444Z,965.46
2016-07-31T10:25:01.443Z,965.44
2016-07-31T10:26:01.448Z,965.39
2016-07-31T10:27:01.448Z,965.44
2016-07-31T10:28:01.452Z,965.45
2016-07-31T10:29:01.452Z,965.46
2016-07-31T10:30:01.461Z,965.46
2016-07-31T10:31:01.459Z,965.5
2016-07-31T10:32:01.455Z,965.47
2016-07-31T10:33:01.460Z,965.43
2016-07-31T10:34:01.461Z,965.43
2016-07-31T10:35:01.465Z,965.47
2016-07-31T10:36:01.464Z,965.46
2016-07-31T10:37:01.468Z,965.47
2016-07-31T10:38:01.468Z,965.45
2016-07-31T10:39:01.473Z,965.5
2016-07-31T10:40:01.472Z,965.48
2016-07-31T10:41:01.476Z,965.48
2016-07-31T10:42:01.477Z,965.49
2016-07-31T10:43:01.481Z,965.49
2016-07-31T10:44:01.482Z,965.48
2016-07-31T10:45:01.484Z,965.5
2016-07-31T10:46:01.484Z,965.49
2016-07-31T10:47:01.484Z,965.45
2016-07-31T10:48:01.487Z,965.45
2016-07-31T10:49:01.488Z,965.47
2016-07-31T10:50:01.492Z,965.47
2016-07-31T10:51:01.493Z,965.45
2016-07-31T10:52:01.496Z,965.48
2016-07-31T10:53:01.496Z,965.52
2016-07-31T10:54:01.501Z,965.53
2016-07-31T10:55:01.500Z,965.53
2016-07-31T10:56:01.504Z,965.47
2016-07-31T10:57:01.504Z,965.5
2016-07-31T10:58:01.504Z,965.47
2016-07-31T10:59:01.509Z,965.51
2016-07-31T11:00:01.509Z,965.49
2016-07-31T11:01:01.513Z,965.47
2016-07-31T11:02:01.512Z,965.47
2016-07-31T11:03:01.516Z,965.49
2016-07-31T11:04:01.516Z,965.5
2016-07-31T11:05:01.516Z,965.56
2016-07-31T11:06:01.521Z,965.5
2016-07-31T11:07:01.519Z,965.5
2016-07-31T11:08:01.525Z,965.62
2016-07-31T11:09:01.524Z,965.65
2016-07-31T11:10:01.529Z,965.53
2016-07-31T11:11:01.529Z,965.52
2016-07-31T11:12:01.532Z,965.54
2016-07-31T11:13:01.533Z,965.64
2016-07-31T11:14:01.537Z,965.61
2016-07-31T11:15:01.537Z,965.6
2016-07-31T11:16:01.540Z,965.61
2016-07-31T11:17:01.544Z,965.63
2016-07-31T11:18:01.550Z,965.61
2016-07-31T11:19:01.544Z,965.57
2016-07-31T11:20:01.545Z,965.58
2016-07-31T11:21:01.548Z,965.55
2016-07-31T11:22:01.549Z,965.55
2016-07-31T11:23:01.553Z,965.58
2016-07-31T11:24:01.555Z,965.62
2016-07-31T11:25:01.557Z,965.59
2016-07-31T11:26:01.557Z,965.59
2016-07-31T11:27:01.560Z,965.57
2016-07-31T11:28:01.561Z,965.6
2016-07-31T11:29:01.565Z,965.59
2016-07-31T11:30:01.566Z,965.52
2016-07-31T11:31:01.569Z,965.56
2016-07-31T11:32:01.569Z,965.54
2016-07-31T11:33:01.569Z,965.55
2016-07-31T11:34:01.573Z,965.58
2016-07-31T11:35:01.578Z,965.6
2016-07-31T11:36:01.577Z,965.61
2016-07-31T11:37:01.577Z,965.53
2016-07-31T11:38:01.581Z,965.5
2016-07-31T11:39:01.581Z,965.48
2016-07-31T11:40:01.585Z,965.49
2016-07-31T11:41:01.585Z,965.5
2016-07-31T11:42:01.589Z,965.49
2016-07-31T11:43:01.589Z,965.49
2016-07-31T11:44:01.593Z,965.45
2016-07-31T11:45:01.593Z,965.41
2016-07-31T11:46:01.597Z,965.41
2016-07-31T11:47:01.598Z,965.38
2016-07-31T11:48:01.597Z,965.4
2016-07-31T11:49:01.602Z,965.37
2016-07-31T11:50:01.611Z,965.36
2016-07-31T11:51:01.605Z,965.36
2016-07-31T11:52:01.605Z,965.36
2016-07-31T11:53:01.609Z,965.34
2016-07-31T11:54:01.609Z,965.36
2016-07-31T11:55:01.613Z,965.34
2016-07-31T11:56:01.614Z,965.34
2016-07-31T11:57:01.617Z,965.29
2016-07-31T11:58:01.617Z,965.25
2016-07-31T11:59:01.622Z,965.21
2016-07-31T12:00:01.622Z,965.19
2016-07-31T12:01:01.626Z,965.22
2016-07-31T12:02:01.626Z,965.18
2016-07-31T12:03:01.629Z,965.15
2016-07-31T12:04:01.630Z,965.15
2016-07-31T12:05:01.634Z,965.16
2016-07-31T12:06:01.634Z,965.14
2016-07-31T12:07:01.634Z,965.19
2016-07-31T12:08:01.638Z,965.15
2016-07-31T12:09:01.642Z,965.2
2016-07-31T12:10:01.642Z,965.23
2016-07-31T12:11:01.643Z,965.26
2016-07-31T12:12:01.656Z,965.31
2016-07-31T12:13:01.646Z,965.3
2016-07-31T12:14:01.651Z,965.27
2016-07-31T12:15:01.650Z,965.27
2016-07-31T12:16:01.654Z,965.23
2016-07-31T12:17:01.654Z,965.25
2016-07-31T12:18:01.663Z,965.24
2016-07-31T12:19:01.659Z,965.21
2016-07-31T12:20:01.662Z,965.25
2016-07-31T12:21:01.663Z,965.29
2016-07-31T12:22:01.666Z,965.27
2016-07-31T12:23:01.667Z,965.28
2016-07-31T12:24:01.670Z,965.25
2016-07-31T12:25:01.669Z,965.3
2016-07-31T12:26:01.674Z,965.27
2016-07-31T12:27:01.675Z,965.25
2016-07-31T12:28:01.676Z,965.23
2016-07-31T12:29:01.678Z,965.21
2016-07-31T12:30:01.683Z,965.2
2016-07-31T12:31:01.683Z,965.22
2016-07-31T12:32:01.682Z,965.23
2016-07-31T12:33:01.687Z,965.21
2016-07-31T12:34:01.692Z,965.23
2016-07-31T12:35:01.690Z,965.2
2016-07-31T12:36:01.692Z,965.18
2016-07-31T12:37:01.695Z,965.2
2016-07-31T12:38:01.695Z,965.17
2016-07-31T12:39:01.699Z,965.17
2016-07-31T12:40:01.700Z,965.16
2016-07-31T12:41:01.703Z,965.16